Time;durP1;ratioP1;P1;durP2;ratioP2;P2;SDS_P1;SDS_P2;PMS_P1;PMS_P2;Temp;Humidity;BMP_temperature;BMP_pressure;BME280_temperature;BME280_humidity;BME280_pressure;Samples;Min_cycle;Max_cycle;Signal;HPM_P1;HPM_P2
2022/09/05 00:02:52;;;;;;;2.00;1.87;;;26.70;70.60;;;;;;5093609;28;20486;-86
2022/09/05 00:05:35;;;;;;;2.00;1.90;;;26.70;70.60;;;;;;5093306;28;21033;-86
2022/09/05 00:08:07;;;;;;;2.53;2.43;;;26.60;70.60;;;;;;5093621;28;20443;-86
2022/09/05 00:10:45;;;;;;;1.90;1.80;;;26.60;70.60;;;;;;5093306;28;20525;-86
2022/09/05 00:13:19;;;;;;;1.83;1.73;;;26.60;70.50;;;;;;5093321;28;20531;-86
2022/09/05 00:15:57;;;;;;;1.70;1.60;;;26.60;71.40;;;;;;5093354;28;20566;-86
2022/09/05 00:18:57;;;;;;;1.97;1.87;;;26.70;70.50;;;;;;5093252;28;20475;-86
2022/09/05 00:21:40;;;;;;;1.77;1.60;;;26.60;70.40;;;;;;5094985;28;20862;-86
2022/09/05 00:24:22;;;;;;;1.97;1.87;;;26.60;71.30;;;;;;5097504;28;20527;-86
2022/09/05 00:26:59;;;;;;;1.90;1.80;;;26.60;70.40;;;;;;5097290;28;20526;-86
2022/09/05 00:29:52;;;;;;;1.60;1.50;;;26.60;70.40;;;;;;5097380;28;20539;-86
2022/09/05 00:32:27;;;;;;;1.87;1.70;;;26.70;70.40;;;;;;5086970;28;20443;-86
2022/09/05 00:35:09;;;;;;;1.90;1.80;;;26.60;70.20;;;;;;5097322;28;20530;-86
2022/09/05 00:37:38;;;;;;;1.60;1.50;;;26.70;71.20;;;;;;5097132;28;20857;-87
2022/09/05 00:40:24;;;;;;;1.83;1.73;;;26.60;70.30;;;;;;5097197;28;20534;-87
2022/09/05 00:42:55;;;;;;;1.93;1.83;;;26.70;70.20;;;;;;5097111;28;20448;-86
2022/09/05 00:45:32;;;;;;;2.30;1.67;;;26.60;70.30;;;;;;5097021;28;20440;-86
2022/09/05 00:48:07;;;;;;;2.17;1.63;;;26.60;70.20;;;;;;5096994;28;20544;-86
2022/09/05 00:50:42;;;;;;;1.80;1.70;;;26.60;70.20;;;;;;5097001;28;20482;-86
2022/09/05 00:53:16;;;;;;;1.93;1.83;;;26.60;70.00;;;;;;5096947;28;20443;-86
2022/09/05 00:55:55;;;;;;;1.90;1.80;;;26.60;70.10;;;;;;5097008;28;20518;-86
2022/09/05 00:58:42;;;;;;;1.47;1.37;;;26.60;70.10;;;;;;5096763;28;20436;-86
2022/09/05 01:01:26;;;;;;;1.70;1.60;;;26.60;70.10;;;;;;5096731;28;20862;-86
2022/09/05 01:04:10;;;;;;;1.87;1.77;;;26.60;70.00;;;;;;5096561;28;20442;-87
2022/09/05 01:06:50;;;;;;;1.40;1.30;;;26.60;70.00;;;;;;5096702;28;20434;-87
2022/09/05 01:09:33;;;;;;;2.13;1.70;;;26.60;70.00;;;;;;5097168;28;20534;-86
2022/09/05 01:12:23;;;;;;;1.80;1.70;;;26.60;70.00;;;;;;5096677;28;20913;-87
2022/09/05 01:15:08;;;;;;;1.57;1.47;;;26.60;69.90;;;;;;5096574;28;20531;-86
2022/09/05 01:17:49;;;;;;;2.00;1.90;;;26.60;69.80;;;;;;5096508;28;20807;-86
2022/09/05 01:20:29;;;;;;;1.70;1.60;;;26.60;69.70;;;;;;5096399;28;20435;-87
2022/09/05 01:23:17;;;;;;;1.60;1.50;;;26.60;69.70;;;;;;5096415;28;20530;-86
2022/09/05 01:26:00;;;;;;;1.77;1.67;;;26.60;69.80;;;;;;5096070;28;20463;-87
2022/09/05 01:28:34;;;;;;;1.90;1.80;;;26.60;69.90;;;;;;5096399;28;20535;-86
2022/09/05 01:31:07;;;;;;;1.60;1.50;;;26.60;69.80;;;;;;5096147;28;21058;-87
2022/09/05 01:33:47;;;;;;;2.27;2.17;;;26.60;69.80;;;;;;5095610;28;20441;-86
2022/09/05 01:36:42;;;;;;;1.70;1.60;;;26.60;69.70;;;;;;5095992;28;20489;-87
2022/09/05 01:39:19;;;;;;;1.70;1.60;;;26.60;69.60;;;;;;5096019;28;20471;-87
2022/09/05 01:41:58;;;;;;;1.50;1.40;;;26.60;69.60;;;;;;5095950;28;20838;-86
2022/09/05 01:44:39;;;;;;;1.70;1.60;;;26.60;69.50;;;;;;5096021;28;21022;-89
2022/09/05 01:47:38;;;;;;;1.60;1.50;;;26.60;69.60;;;;;;5095684;28;20460;-86
2022/09/05 01:50:17;;;;;;;1.70;1.60;;;26.60;70.40;;;;;;5095664;28;20470;-86
2022/09/05 01:53:08;;;;;;;1.67;1.57;;;26.60;69.70;;;;;;5095806;28;20459;-86
2022/09/05 01:55:51;;;;;;;1.50;1.40;;;26.60;69.60;;;;;;5095800;28;20482;-86
2022/09/05 01:58:27;;;;;;;2.13;2.03;;;26.60;69.60;;;;;;5095788;28;20438;-86
2022/09/05 02:01:06;;;;;;;2.00;1.90;;;26.60;69.60;;;;;;5095872;28;20436;-86
2022/09/05 02:03:40;;;;;;;1.47;1.37;;;26.60;69.40;;;;;;5095458;28;20522;-86
2022/09/05 02:06:30;;;;;;;1.43;1.33;;;26.60;69.40;;;;;;5095452;28;20468;-86
2022/09/05 02:09:30;;;;;;;1.63;1.53;;;26.60;69.40;;;;;;5095520;28;20919;-86
2022/09/05 02:12:00;;;;;;;1.77;1.67;;;26.60;69.30;;;;;;5080373;28;20480;-86
2022/09/05 02:14:39;;;;;;;1.60;1.50;;;26.50;69.30;;;;;;5095456;28;20536;-86
2022/09/05 02:17:23;;;;;;;1.60;1.50;;;26.60;69.30;;;;;;5095353;28;20456;-87
2022/09/05 02:19:55;;;;;;;1.90;1.80;;;26.60;69.40;;;;;;5095383;28;20852;-86
2022/09/05 02:22:28;;;;;;;1.60;1.50;;;26.60;69.50;;;;;;5095314;28;20479;-86
2022/09/05 02:25:04;;;;;;;1.57;1.47;;;26.60;69.30;;;;;;5095271;28;20482;-86
2022/09/05 02:27:36;;;;;;;1.70;1.60;;;26.60;69.30;;;;;;5095053;28;20836;-86
2022/09/05 02:30:09;;;;;;;1.73;1.63;;;26.60;69.40;;;;;;5095230;28;20526;-86
2022/09/05 02:32:51;;;;;;;2.20;2.00;;;26.60;69.20;;;;;;5095010;28;20530;-86
2022/09/05 02:35:26;;;;;;;1.90;1.80;;;26.60;69.30;;;;;;5094878;28;20526;-86
2022/09/05 02:37:59;;;;;;;1.87;1.77;;;26.60;69.30;;;;;;5094991;28;20438;-86
2022/09/05 02:40:37;;;;;;;1.70;1.60;;;26.60;69.20;;;;;;5095020;28;20883;-86
2022/09/05 02:43:18;;;;;;;1.80;1.70;;;26.60;69.10;;;;;;5094889;28;20436;-87
2022/09/05 02:45:57;;;;;;;1.37;1.27;;;26.60;69.10;;;;;;5093618;28;20517;-86
2022/09/05 02:48:32;;;;;;;1.80;1.70;;;26.60;69.10;;;;;;5094766;28;20858;-87
2022/09/05 02:51:12;;;;;;;2.00;1.90;;;26.60;69.10;;;;;;5094636;28;20517;-87
2022/09/05 02:53:43;;;;;;;1.60;1.50;;;26.60;69.00;;;;;;5094807;28;20843;-87
2022/09/05 02:56:25;;;;;;;1.67;1.57;;;26.60;69.30;;;;;;5094630;28;20431;-86
2022/09/05 02:59:04;;;;;;;1.23;1.13;;;26.60;69.10;;;;;;5094526;28;20481;-86
2022/09/05 03:01:44;;;;;;;1.60;1.50;;;26.60;69.00;;;;;;5094497;28;20452;-86
2022/09/05 03:04:27;;;;;;;1.70;1.60;;;26.60;69.10;;;;;;5094260;28;20472;-86
2022/09/05 03:07:07;;;;;;;1.60;1.50;;;26.60;69.10;;;;;;5094456;28;20523;-86
2022/09/05 03:09:46;;;;;;;1.60;1.50;;;26.60;69.00;;;;;;5094241;28;20435;-86
2022/09/05 03:12:46;;;;;;;1.40;1.30;;;26.60;69.00;;;;;;5094308;28;20489;-87
2022/09/05 03:15:58;;;;;;;1.50;1.40;;;26.60;69.10;;;;;;5094155;28;20786;-86
2022/09/05 03:19:02;;;;;;;1.50;1.40;;;26.60;69.00;;;;;;5094221;28;20444;-86
2022/09/05 03:22:06;;;;;;;1.77;1.67;;;26.60;69.20;;;;;;5064085;28;20803;-87
2022/09/05 03:25:18;;;;;;;1.50;1.40;;;26.60;69.10;;;;;;5093818;28;20440;-86
2022/09/05 03:28:26;;;;;;;1.80;1.70;;;26.60;69.10;;;;;;5093926;28;20440;-86
2022/09/05 03:31:15;;;;;;;1.87;1.77;;;26.50;69.10;;;;;;5093935;28;20517;-87
2022/09/05 03:34:25;;;;;;;1.30;1.20;;;26.50;69.10;;;;;;5094071;28;20471;-90
2022/09/05 03:37:12;;;;;;;1.60;1.50;;;26.60;69.10;;;;;;5076616;28;20994;-86
2022/09/05 03:40:23;;;;;;;1.90;1.80;;;26.50;69.20;;;;;;5093961;28;20773;-86
2022/09/05 03:43:24;;;;;;;1.70;1.60;;;26.60;69.10;;;;;;5073359;28;20538;-86
2022/09/05 03:46:06;;;;;;;1.70;1.60;;;26.60;69.20;;;;;;5062240;28;20470;-86
2022/09/05 03:48:57;;;;;;;1.60;1.50;;;26.50;69.10;;;;;;5093690;28;20962;-86
2022/09/05 03:51:31;;;;;;;1.37;1.27;;;26.60;69.20;;;;;;5093632;28;20475;-86
2022/09/05 03:54:18;;;;;;;1.73;1.63;;;26.60;69.20;;;;;;5093735;28;20438;-86
2022/09/05 03:57:09;;;;;;;1.50;1.40;;;26.60;69.10;;;;;;5093244;28;20440;-86
2022/09/05 04:00:08;;;;;;;1.70;1.60;;;26.60;69.20;;;;;;5076384;28;20483;-86
2022/09/05 04:02:47;;;;;;;1.70;1.60;;;26.60;69.10;;;;;;5048734;28;20443;-86
2022/09/05 04:05:19;;;;;;;1.40;1.30;;;26.50;70.00;;;;;;5093394;28;20467;-87
2022/09/05 04:07:53;;;;;;;1.77;1.67;;;26.50;69.10;;;;;;5093515;28;20978;-86
2022/09/05 04:10:32;;;;;;;1.53;1.43;;;26.60;69.30;;;;;;5093416;28;20471;-90
2022/09/05 04:13:04;;;;;;;1.90;1.77;;;26.60;69.00;;;;;;5093379;28;20522;-86
2022/09/05 04:15:38;;;;;;;1.80;1.70;;;26.60;69.10;;;;;;5093263;28;20479;-87
2022/09/05 04:18:20;;;;;;;1.60;1.50;;;26.60;69.00;;;;;;5093115;28;20495;-86
2022/09/05 04:20:53;;;;;;;1.50;1.40;;;26.60;69.20;;;;;;5093372;28;20455;-86
2022/09/05 04:23:29;;;;;;;1.60;1.50;;;26.60;69.20;;;;;;5093441;28;20440;-90
2022/09/05 04:26:09;;;;;;;1.50;1.40;;;26.60;69.10;;;;;;5093471;28;20474;-89
2022/09/05 04:29:01;;;;;;;1.40;1.30;;;26.60;69.10;;;;;;5093589;28;20468;-90
2022/09/05 04:31:39;;;;;;;1.80;1.70;;;26.50;69.00;;;;;;5093266;28;20827;-86
2022/09/05 04:34:20;;;;;;;1.57;1.47;;;26.60;69.20;;;;;;5093362;28;20471;-86
2022/09/05 04:37:00;;;;;;;1.50;1.40;;;26.60;69.10;;;;;;5093114;28;20511;-87
2022/09/05 04:39:28;;;;;;;1.80;1.70;;;26.50;69.00;;;;;;5093151;28;20946;-87
2022/09/05 04:42:16;;;;;;;1.43;1.33;;;26.50;69.00;;;;;;5092965;28;20440;-86
2022/09/05 04:44:47;;;;;;;1.50;1.40;;;26.60;69.00;;;;;;5093356;28;20475;-87
2022/09/05 04:47:19;;;;;;;1.60;1.50;;;26.50;68.90;;;;;;5093021;28;20853;-87
2022/09/05 04:49:54;;;;;;;1.37;1.27;;;26.60;69.00;;;;;;5093020;28;20440;-86
2022/09/05 04:52:49;;;;;;;1.90;1.80;;;26.60;69.00;;;;;;5092919;28;20574;-86
2022/09/05 04:55:19;;;;;;;1.60;1.50;;;26.50;68.90;;;;;;5092951;28;20470;-86
2022/09/05 04:57:52;;;;;;;1.77;1.67;;;26.50;69.00;;;;;;5093091;28;20467;-87
2022/09/05 05:00:25;;;;;;;1.67;1.57;;;26.50;69.00;;;;;;5092892;28;20488;-90
2022/09/05 05:02:55;;;;;;;1.67;1.57;;;26.50;69.00;;;;;;5092888;28;20458;-86
2022/09/05 05:05:24;;;;;;;1.60;1.50;;;26.50;69.00;;;;;;5092432;28;20986;-86
2022/09/05 05:07:57;;;;;;;1.60;1.50;;;26.50;68.90;;;;;;5093447;28;20444;-86
2022/09/05 05:10:36;;;;;;;1.70;1.60;;;26.50;69.00;;;;;;5096641;28;20428;-86
2022/09/05 05:13:09;;;;;;;1.60;1.50;;;26.50;69.00;;;;;;5096455;28;20570;-86
2022/09/05 05:15:46;;;;;;;1.73;1.63;;;26.50;69.00;;;;;;5096286;28;20446;-82
2022/09/05 05:18:22;;;;;;;1.70;1.60;;;26.60;68.90;;;;;;5093401;28;20941;-85
2022/09/05 05:20:56;;;;;;;1.47;1.37;;;26.50;68.80;;;;;;5113166;28;21057;-85
2022/09/05 05:23:33;;;;;;;1.80;1.70;;;26.50;69.00;;;;;;5116174;28;20525;-82
2022/09/05 05:26:03;;;;;;;1.63;1.37;;;26.50;69.00;;;;;;5102790;28;20836;-85
2022/09/05 05:28:48;;;;;;;1.97;1.87;;;26.50;69.20;;;;;;5107424;28;20478;-91
2022/09/05 05:31:19;;;;;;;1.57;1.47;;;26.50;69.30;;;;;;5094522;28;20530;-83
2022/09/05 05:33:49;;;;;;;1.50;1.40;;;26.50;69.40;;;;;;5096063;28;20491;-84
2022/09/05 05:36:22;;;;;;;1.70;1.60;;;26.50;69.40;;;;;;5095386;28;20448;-84
2022/09/05 05:38:55;;;;;;;2.60;2.40;;;26.50;69.50;;;;;;5114263;28;20851;-85
2022/09/05 05:41:26;;;;;;;2.17;2.07;;;26.50;69.40;;;;;;5109913;28;20483;-85
2022/09/05 05:43:55;;;;;;;2.20;2.00;;;26.50;69.50;;;;;;5096896;28;20455;-84
2022/09/05 05:46:30;;;;;;;2.47;2.37;;;26.50;69.50;;;;;;5115481;28;20564;-84
2022/09/05 05:49:14;;;;;;;2.10;2.00;;;26.50;69.50;;;;;;5105215;28;20463;-83
2022/09/05 05:51:52;;;;;;;1.80;1.70;;;26.50;69.70;;;;;;5094813;28;20489;-83
2022/09/05 05:54:27;;;;;;;4.27;3.50;;;26.50;69.30;;;;;;5107025;28;20959;-83
2022/09/05 05:57:20;;;;;;;4.80;4.40;;;26.40;70.70;;;;;;5109916;28;20480;-83
2022/09/05 06:00:19;;;;;;;3.97;3.67;;;26.20;72.10;;;;;;5115273;28;20463;-83
2022/09/05 06:03:15;;;;;;;4.63;4.23;;;26.10;72.50;;;;;;5114207;28;20447;-82
2022/09/05 06:06:12;;;;;;;5.87;4.07;;;26.00;73.60;;;;;;5114386;28;20548;-83
2022/09/05 06:08:52;;;;;;;4.63;4.30;;;25.90;73.60;;;;;;5115036;28;20446;-82
2022/09/05 06:11:59;;;;;;;4.43;3.93;;;25.80;74.10;;;;;;5114714;28;20541;-83
2022/09/05 06:15:06;;;;;;;4.83;4.33;;;25.80;74.40;;;;;;5099018;28;20937;-85
2022/09/05 06:18:03;;;;;;;6.90;4.00;;;25.80;74.30;;;;;;5113313;28;20462;-83
2022/09/05 06:20:54;;;;;;;9.43;4.43;;;25.80;74.50;;;;;;5102480;28;20451;-83
2022/09/05 06:24:03;;;;;;;4.73;4.00;;;25.70;74.70;;;;;;5113087;28;20972;-83
2022/09/05 06:26:52;;;;;;;7.57;4.93;;;25.70;75.30;;;;;;5032691;28;20448;-87
2022/09/05 06:29:34;;;;;;;5.90;4.57;;;25.60;75.80;;;;;;5114584;28;20794;-81
2022/09/05 06:32:09;;;;;;;5.37;4.83;;;25.60;75.90;;;;;;5114274;28;21059;-82
2022/09/05 06:35:15;;;;;;;5.70;4.30;;;25.60;76.00;;;;;;5114342;28;20481;-83
2022/09/05 06:37:54;;;;;;;5.67;5.10;;;25.60;76.10;;;;;;5114386;28;20856;-81
2022/09/05 06:40:27;;;;;;;5.00;4.60;;;25.50;76.20;;;;;;5114486;28;20474;-82
2022/09/05 06:43:16;;;;;;;6.97;4.90;;;25.50;76.10;;;;;;5114346;28;20928;-82
2022/09/05 06:46:04;;;;;;;6.13;4.50;;;25.60;76.30;;;;;;5112887;28;20439;-83
2022/09/05 06:48:41;;;;;;;6.80;5.13;;;25.60;76.20;;;;;;5113731;28;20453;-83
2022/09/05 06:51:43;;;;;;;12.60;4.50;;;25.70;75.90;;;;;;5113781;28;20553;-83
2022/09/05 06:54:33;;;;;;;5.30;4.40;;;25.70;75.80;;;;;;5070597;28;20434;-83
2022/09/05 06:57:12;;;;;;;7.90;4.07;;;25.70;75.80;;;;;;5113966;28;20466;-83
2022/09/05 07:00:09;;;;;;;4.00;3.53;;;25.70;75.90;;;;;;5114063;28;20546;-83
2022/09/05 07:02:40;;;;;;;4.50;4.10;;;25.80;75.70;;;;;;5114146;28;20509;-83
2022/09/05 07:05:30;;;;;;;5.17;3.67;;;25.80;75.70;;;;;;5113557;28;20557;-83
2022/09/05 07:08:04;;;;;;;8.83;3.87;;;25.80;75.60;;;;;;5109257;28;20443;-82
2022/09/05 07:10:36;;;;;;;4.73;3.80;;;25.80;75.60;;;;;;5102705;28;20530;-83
2022/09/05 07:13:12;;;;;;;3.50;3.20;;;25.90;75.30;;;;;;5092784;28;20842;-83
2022/09/05 07:15:53;;;;;;;3.60;3.30;;;26.00;74.70;;;;;;5093133;28;20443;-83
2022/09/05 07:18:28;;;;;;;4.73;3.60;;;26.00;75.00;;;;;;5093644;28;20467;-83
2022/09/05 07:20:58;;;;;;;3.77;3.07;;;26.00;75.00;;;;;;5093343;28;20447;-83
2022/09/05 07:23:46;;;;;;;3.70;2.77;;;26.10;74.50;;;;;;5093282;28;20455;-83
2022/09/05 07:26:19;;;;;;;4.53;2.80;;;26.20;73.80;;;;;;5093442;28;20454;-83
2022/09/05 07:28:49;;;;;;;2.90;2.60;;;26.20;73.30;;;;;;5092851;28;20444;-83
2022/09/05 07:31:21;;;;;;;3.47;2.77;;;26.20;72.80;;;;;;5092616;28;20479;-82
2022/09/05 07:33:49;;;;;;;3.03;2.83;;;26.20;72.60;;;;;;5093196;28;20491;-83
2022/09/05 07:36:19;;;;;;;4.00;3.00;;;26.20;73.30;;;;;;5091587;28;20809;-83
2022/09/05 07:38:50;;;;;;;3.67;3.03;;;26.30;72.50;;;;;;5090858;28;20546;-83
2022/09/05 07:41:23;;;;;;;6.00;2.40;;;26.30;72.30;;;;;;5091985;28;20448;-83
2022/09/05 07:43:55;;;;;;;5.10;2.90;;;26.30;72.20;;;;;;5092609;28;20458;-83
2022/09/05 07:46:26;;;;;;;3.23;2.93;;;26.40;72.20;;;;;;5092913;28;20554;-85
2022/09/05 07:48:58;;;;;;;3.07;2.60;;;26.30;72.00;;;;;;5092921;28;20569;-85
2022/09/05 07:51:28;;;;;;;2.97;2.77;;;26.40;72.00;;;;;;5093139;28;20436;-87
2022/09/05 07:53:58;;;;;;;3.87;2.57;;;26.40;72.00;;;;;;5093511;28;20473;-87
2022/09/05 07:56:44;;;;;;;2.57;2.23;;;26.40;71.90;;;;;;5093147;28;20531;-89
2022/09/05 07:59:13;;;;;;;3.33;2.23;;;26.50;71.90;;;;;;5095387;28;20508;-87
2022/09/05 08:01:44;;;;;;;6.13;2.57;;;26.40;71.90;;;;;;5093751;28;20462;-86
2022/09/05 08:04:14;;;;;;;2.63;2.23;;;26.50;71.70;;;;;;5095725;28;20887;-87
2022/09/05 08:06:42;;;;;;;3.73;2.50;;;26.50;71.70;;;;;;5096049;28;20919;-88
2022/09/05 08:09:17;;;;;;;2.97;2.73;;;26.50;71.70;;;;;;5094718;28;20539;-89
2022/09/05 08:11:47;;;;;;;3.60;2.10;;;26.50;71.40;;;;;;5095858;28;20470;-89
2022/09/05 08:14:25;;;;;;;2.20;2.00;;;26.50;71.40;;;;;;5095392;28;20828;-89
2022/09/05 08:16:51;;;;;;;2.17;2.07;;;26.50;71.30;;;;;;5094499;28;20482;-89
2022/09/05 08:19:43;;;;;;;8.67;2.27;;;26.50;71.20;;;;;;5093991;28;20439;-90
2022/09/05 08:22:20;;;;;;;2.33;1.70;;;26.50;71.00;;;;;;5094213;28;20436;-91
2022/09/05 08:24:58;;;;;;;5.90;2.70;;;26.50;71.00;;;;;;5095014;28;20573;-90
2022/09/05 08:27:31;;;;;;;3.13;2.33;;;26.50;71.00;;;;;;5095822;28;20526;-89
2022/09/05 08:30:06;;;;;;;2.27;2.17;;;26.50;70.90;;;;;;5095393;28;20976;-92
2022/09/05 08:32:40;;;;;;;2.63;2.43;;;26.50;70.80;;;;;;5093723;28;20471;-92
2022/09/05 08:35:16;;;;;;;7.80;2.80;;;26.50;70.90;;;;;;5094709;28;20447;-90
2022/09/05 08:37:44;;;;;;;11.50;2.77;;;26.50;70.90;;;;;;5096317;28;20474;-90
2022/09/05 08:40:24;;;;;;;2.90;2.70;;;26.50;70.90;;;;;;5099230;28;21037;-91
2022/09/05 08:42:59;;;;;;;2.57;2.40;;;26.50;70.70;;;;;;5100122;28;20435;-92
2022/09/05 08:45:34;;;;;;;5.07;2.30;;;26.50;70.60;;;;;;5100591;28;20526;-92
2022/09/05 08:48:15;;;;;;;2.23;2.03;;;26.50;70.60;;;;;;5100451;28;20498;-91
2022/09/05 08:51:09;;;;;;;1.90;1.80;;;26.50;70.60;;;;;;5100908;28;21006;-92
2022/09/05 08:53:56;;;;;;;2.50;2.30;;;26.60;70.60;;;;;;5099362;28;21004;-90
2022/09/05 08:56:25;;;;;;;3.10;1.90;;;26.60;70.60;;;;;;5098501;28;20852;-89
2022/09/05 08:58:58;;;;;;;2.10;2.00;;;26.50;70.50;;;;;;5098123;28;20831;-89
2022/09/05 09:01:30;;;;;;;8.80;3.20;;;26.50;70.40;;;;;;5097758;28;20829;-90
2022/09/05 09:04:15;;;;;;;2.27;1.87;;;26.60;70.90;;;;;;5097839;28;20489;-90
2022/09/05 09:07:11;;;;;;;1.97;1.87;;;26.60;70.70;;;;;;5098357;28;20440;-90
2022/09/05 09:09:47;;;;;;;2.53;2.30;;;26.60;70.50;;;;;;5100000;28;20432;-91
2022/09/05 09:12:34;;;;;;;1.93;1.83;;;26.60;70.50;;;;;;5116577;28;20437;-96
2022/09/05 09:15:09;;;;;;;2.37;1.70;;;26.60;70.50;;;;;;5121769;28;21009;-96
2022/09/05 09:17:43;;;;;;;4.80;1.80;;;26.60;70.40;;;;;;5120595;28;20458;-94
2022/09/05 09:20:20;;;;;;;2.33;1.60;;;26.60;70.30;;;;;;5120661;28;20507;-95
2022/09/05 09:22:56;;;;;;;2.67;1.60;;;26.60;70.30;;;;;;5121712;28;20435;-95
2022/09/05 09:25:29;;;;;;;1.80;1.70;;;26.60;70.20;;;;;;5120725;28;20423;-95
2022/09/05 09:28:23;;;;;;;2.00;1.83;;;26.60;70.20;;;;;;5120826;28;20431;-95
2022/09/05 09:30:59;;;;;;;1.90;1.80;;;26.60;70.10;;;;;;5103394;28;20454;-94
2022/09/05 09:33:37;;;;;;;2.13;2.03;;;26.60;70.10;;;;;;5120507;28;20492;-95
2022/09/05 09:36:09;;;;;;;2.30;1.60;;;26.60;70.20;;;;;;5120455;28;20876;-95
2022/09/05 09:38:44;;;;;;;2.77;2.13;;;26.60;70.20;;;;;;5120576;28;20463;-95
2022/09/05 09:41:44;;;;;;;1.90;1.80;;;26.60;70.20;;;;;;5120032;28;20431;-95
2022/09/05 09:44:52;;;;;;;1.70;1.60;;;26.60;70.10;;;;;;5120219;28;20431;-96
2022/09/05 09:47:40;;;;;;;2.00;1.90;;;26.60;70.20;;;;;;5120613;28;20463;-96
2022/09/05 09:50:20;;;;;;;3.50;2.40;;;26.60;70.40;;;;;;5120594;28;20968;-95
2022/09/05 09:53:14;;;;;;;3.80;2.10;;;26.60;71.30;;;;;;5120619;28;20467;-95
2022/09/05 09:56:31;;;;;;;2.10;1.90;;;26.60;70.40;;;;;;5119957;28;20435;-96
2022/09/05 09:59:10;;;;;;;3.90;2.37;;;26.60;70.40;;;;;;5119623;28;20431;-95
2022/09/05 10:01:52;;;;;;;4.33;2.30;;;26.60;70.50;;;;;;5120141;28;20513;-95
2022/09/05 10:05:06;;;;;;;4.73;2.37;;;26.60;70.50;;;;;;5119500;28;20490;-95
2022/09/05 10:08:03;;;;;;;3.03;2.30;;;26.50;70.30;;;;;;5037061;28;20473;-95
2022/09/05 10:10:56;;;;;;;3.43;2.40;;;26.60;70.50;;;;;;5037357;28;20504;-95
2022/09/05 10:13:33;;;;;;;3.90;2.50;;;26.60;70.40;;;;;;5107359;28;20475;-96
2022/09/05 10:16:34;;;;;;;2.90;2.07;;;26.60;70.50;;;;;;5134748;27;20470;-87
2022/09/05 10:19:33;;;;;;;4.73;1.83;;;26.60;70.50;;;;;;5141349;27;20430;-89
2022/09/05 10:22:18;;;;;;;5.93;2.60;;;26.60;70.90;;;;;;5130428;27;20453;-94
2022/09/05 10:25:10;;;;;;;4.83;2.43;;;26.60;70.90;;;;;;5116961;28;20476;-89
2022/09/05 10:27:53;;;;;;;4.53;2.23;;;26.70;70.90;;;;;;5116425;28;20442;-90
2022/09/05 10:30:23;;;;;;;6.10;2.30;;;26.70;71.50;;;;;;5116263;28;20443;-89
2022/09/05 10:33:24;;;;;;;5.20;2.40;;;26.70;71.90;;;;;;5116307;28;20547;-89
2022/09/05 10:35:59;;;;;;;4.07;2.07;;;26.70;72.00;;;;;;5116137;28;20492;-90
2022/09/05 10:38:35;;;;;;;1.97;1.80;;;26.70;72.20;;;;;;5117329;28;20441;-92
2022/09/05 10:41:09;;;;;;;3.03;2.73;;;26.70;72.20;;;;;;5117063;28;20431;-91
2022/09/05 10:43:47;;;;;;;3.60;2.13;;;26.70;72.30;;;;;;5118370;28;20455;-90
2022/09/05 10:46:24;;;;;;;3.70;2.10;;;26.70;72.20;;;;;;5118929;28;20453;-90
2022/09/05 10:48:54;;;;;;;2.40;1.97;;;26.70;72.10;;;;;;5118662;28;20445;-90
2022/09/05 10:51:29;;;;;;;4.43;2.00;;;26.70;72.20;;;;;;5120494;28;20447;-94
2022/09/05 10:54:11;;;;;;;2.47;2.07;;;26.70;72.20;;;;;;5119109;28;20482;-90
2022/09/05 10:56:42;;;;;;;2.30;2.10;;;26.80;72.30;;;;;;5120445;28;20474;-89
2022/09/05 10:59:19;;;;;;;3.23;2.07;;;26.80;72.40;;;;;;5119086;28;20463;-90
2022/09/05 11:01:55;;;;;;;3.00;1.83;;;26.80;73.00;;;;;;5119281;28;20478;-92
2022/09/05 11:04:36;;;;;;;2.60;1.60;;;26.80;71.90;;;;;;5119224;28;20458;-94
2022/09/05 11:07:10;;;;;;;2.80;1.70;;;26.80;71.70;;;;;;5119309;28;20427;-89
2022/09/05 11:10:01;;;;;;;4.23;1.80;;;26.80;71.80;;;;;;5117128;28;20848;-92
2022/09/05 11:12:57;;;;;;;3.57;2.13;;;26.80;71.50;;;;;;5121145;28;20431;-91
2022/09/05 11:15:31;;;;;;;1.83;1.60;;;26.70;71.10;;;;;;5121220;28;20547;-91
2022/09/05 11:18:03;;;;;;;2.40;1.63;;;26.70;71.00;;;;;;5121788;28;20506;-92
2022/09/05 11:20:51;;;;;;;2.00;1.80;;;26.70;71.10;;;;;;5115742;28;20423;-92
2022/09/05 11:23:22;;;;;;;2.00;1.80;;;27.10;71.40;;;;;;5116455;28;20443;-91
2022/09/05 11:26:00;;;;;;;3.13;1.90;;;26.90;71.40;;;;;;5116440;28;20457;-90
2022/09/05 11:28:37;;;;;;;2.33;1.87;;;26.90;71.20;;;;;;5117029;28;20451;-92
2022/09/05 11:31:12;;;;;;;1.90;1.70;;;26.90;71.00;;;;;;5117022;28;20837;-90
2022/09/05 11:33:58;;;;;;;2.63;1.93;;;26.80;70.60;;;;;;5116328;28;21064;-89
2022/09/05 11:36:30;;;;;;;1.37;1.27;;;26.80;70.50;;;;;;5116592;28;20758;-89
2022/09/05 11:39:28;;;;;;;1.80;1.47;;;26.80;70.50;;;;;;5119417;27;20937;-86
2022/09/05 11:42:25;;;;;;;1.80;1.70;;;26.80;71.00;;;;;;5117632;28;20467;-86
2022/09/05 11:45:21;;;;;;;2.10;1.50;;;26.80;70.60;;;;;;5119441;27;20485;-86
2022/09/05 11:48:16;;;;;;;1.70;1.60;;;26.80;70.10;;;;;;5106776;27;20458;-86
2022/09/05 11:51:44;;;;;;;1.63;1.53;;;26.80;69.70;;;;;;5119746;28;20471;-85
2022/09/05 11:54:40;;;;;;;1.70;1.60;;;26.80;69.60;;;;;;5119245;27;20485;-86
2022/09/05 11:57:37;;;;;;;1.50;1.23;;;26.80;69.60;;;;;;5118179;28;20439;-86
2022/09/05 12:00:15;;;;;;;2.07;1.50;;;26.80;69.50;;;;;;5120601;27;20419;-86
2022/09/05 12:03:10;;;;;;;1.50;1.40;;;26.80;69.50;;;;;;5122799;22;20515;-86
2022/09/05 12:06:16;;;;;;;1.43;1.33;;;26.80;69.50;;;;;;5099398;28;20778;-86
2022/09/05 12:08:53;;;;;;;1.30;1.20;;;26.80;69.50;;;;;;5093588;22;20579;-86
2022/09/05 12:13:51;;;;;;;1.77;1.50;;;26.70;69.50;;;;;;5089805;22;20511;-85
2022/09/05 12:16:49;;;;;;;1.70;1.30;;;26.70;69.50;;;;;;5086358;22;20206;-85
2022/09/05 12:19:25;;;;;;;2.93;1.50;;;26.70;69.40;;;;;;5028902;28;20870;-86
2022/09/05 12:22:22;;;;;;;1.60;1.30;;;26.70;69.40;;;;;;5084992;22;20809;-86
2022/09/05 12:25:07;;;;;;;1.87;1.40;;;26.70;69.30;;;;;;5076640;28;20450;-86
2022/09/05 12:27:36;;;;;;;1.87;1.63;;;26.70;69.40;;;;;;5076495;28;20475;-86
2022/09/05 12:30:06;;;;;;;1.40;1.30;;;26.70;69.40;;;;;;5076683;28;20433;-86
2022/09/05 12:32:49;;;;;;;1.73;1.50;;;26.70;69.40;;;;;;5076934;28;20496;-86
2022/09/05 12:35:36;;;;;;;1.60;1.50;;;26.70;69.30;;;;;;5075166;28;20515;-85
2022/09/05 12:38:19;;;;;;;1.70;1.30;;;26.70;69.40;;;;;;5076541;28;20472;-86
2022/09/05 12:40:52;;;;;;;1.47;1.37;;;26.70;69.30;;;;;;5077097;28;20464;-85
2022/09/05 12:43:25;;;;;;;1.43;1.33;;;26.70;69.30;;;;;;5076133;28;20448;-86
2022/09/05 12:45:57;;;;;;;1.53;1.43;;;26.70;69.30;;;;;;5075550;28;20467;-85
2022/09/05 12:48:30;;;;;;;1.23;1.10;;;26.70;69.30;;;;;;5078946;28;20483;-85
2022/09/05 12:51:01;;;;;;;1.50;1.13;;;26.70;69.30;;;;;;5079492;28;20785;-87
2022/09/05 12:53:44;;;;;;;1.30;1.20;;;26.70;69.20;;;;;;5081209;28;20436;-84
2022/09/05 12:56:22;;;;;;;1.50;1.40;;;26.70;69.10;;;;;;5077441;28;20445;-86
2022/09/05 12:59:23;;;;;;;2.13;1.23;;;26.70;69.10;;;;;;5081127;28;20540;-85
2022/09/05 13:02:02;;;;;;;1.40;1.20;;;26.70;69.10;;;;;;5219183;22;20492;-85
2022/09/05 13:04:35;;;;;;;1.33;1.23;;;26.70;69.40;;;;;;5094925;22;20494;-85
2022/09/05 13:07:08;;;;;;;1.50;1.40;;;26.70;70.20;;;;;;5099556;28;20420;-85
2022/09/05 13:09:40;;;;;;;1.30;1.20;;;26.70;69.10;;;;;;5095965;28;20444;-85
2022/09/05 13:12:30;;;;;;;1.50;1.40;;;26.70;69.00;;;;;;5097486;28;20549;-85
2022/09/05 13:15:04;;;;;;;1.50;1.40;;;26.70;68.90;;;;;;5094147;28;21033;-91
2022/09/05 13:17:37;;;;;;;1.50;1.40;;;26.70;69.00;;;;;;5093827;28;20523;-91
2022/09/05 13:20:15;;;;;;;1.60;1.50;;;26.70;69.20;;;;;;5093138;28;20424;-91
2022/09/05 13:22:45;;;;;;;1.37;1.27;;;26.80;69.70;;;;;;5092951;28;20493;-91
2022/09/05 13:25:17;;;;;;;1.30;1.20;;;26.70;69.70;;;;;;5093145;28;20470;-90
2022/09/05 13:27:55;;;;;;;1.30;1.20;;;26.80;69.80;;;;;;5093070;28;20494;-92
2022/09/05 13:30:24;;;;;;;1.53;1.43;;;26.80;69.80;;;;;;5096409;28;20784;-91
2022/09/05 13:32:55;;;;;;;2.50;1.37;;;26.80;69.80;;;;;;5097127;28;20444;-87
2022/09/05 13:35:28;;;;;;;1.40;1.30;;;26.80;70.00;;;;;;5096492;28;20487;-87
2022/09/05 13:38:02;;;;;;;2.13;1.30;;;26.80;69.50;;;;;;5087781;28;20441;-86
2022/09/05 13:40:35;;;;;;;2.23;1.50;;;26.80;69.20;;;;;;5076036;28;20527;-85
2022/09/05 13:43:10;;;;;;;1.40;1.20;;;26.80;69.00;;;;;;5082157;28;20542;-95
2022/09/05 13:46:03;;;;;;;1.50;1.40;;;26.80;69.10;;;;;;5102579;28;20546;-95
2022/09/05 13:48:42;;;;;;;1.63;1.53;;;26.80;69.10;;;;;;5100808;28;20432;-90
2022/09/05 13:51:29;;;;;;;1.23;1.13;;;26.80;69.40;;;;;;5104063;28;20824;-91
2022/09/05 13:54:27;;;;;;;1.27;1.17;;;26.80;69.60;;;;;;5101072;28;20423;-92
2022/09/05 13:57:02;;;;;;;1.93;1.40;;;26.80;69.80;;;;;;5089415;28;20440;-90
2022/09/05 13:59:40;;;;;;;1.93;1.30;;;26.80;69.80;;;;;;5096716;28;20439;-89
2022/09/05 14:02:29;;;;;;;1.50;1.40;;;26.80;69.70;;;;;;5096273;28;20507;-92
2022/09/05 14:05:17;;;;;;;1.50;1.40;;;26.80;69.70;;;;;;5096028;28;20478;-92